Time;durP1;ratioP1;P1;durP2;ratioP2;P2;SDS_P1;SDS_P2;PMS_P1;PMS_P2;Temp;Humidity;BMP_temperature;BMP_pressure;BME280_temperature;BME280_humidity;BME280_pressure;Samples;Min_cycle;Max_cycle;Signal;HPM_P1;HPM_P2
2024/03/05 00:00:50;;;;;;;88.47;28.90;;;;;;;;;;5007835;28;20033;-70
2024/03/05 00:03:15;;;;;;;92.37;30.00;;;;;;;;;;5008130;28;20522;-71
2024/03/05 00:05:40;;;;;;;78.03;28.00;;;;;;;;;;5010493;28;20281;-69
2024/03/05 00:08:06;;;;;;;90.53;29.33;;;;;;;;;;5010499;28;20021;-70
2024/03/05 00:10:32;;;;;;;83.35;27.77;;;;;;;;;;5008021;28;20026;-70
2024/03/05 00:12:58;;;;;;;77.45;27.85;;;;;;;;;;5011811;28;20121;-70
2024/03/05 00:15:23;;;;;;;79.47;26.00;;;;;;;;;;5011805;28;20213;-69
2024/03/05 00:17:48;;;;;;;84.27;28.73;;;;;;;;;;5006054;28;20262;-69
2024/03/05 00:20:19;;;;;;;93.40;30.60;;;;;;;;;;5011373;28;20290;-69
2024/03/05 00:22:45;;;;;;;91.82;27.88;;;;;;;;;;5006177;28;20324;-69
2024/03/05 00:25:11;;;;;;;100.13;29.50;;;;;;;;;;5010020;28;20429;-70
2024/03/05 00:27:37;;;;;;;93.07;29.27;;;;;;;;;;5009137;28;20018;-70
2024/03/05 00:30:04;;;;;;;82.75;27.48;;;;;;;;;;5009566;28;20022;-69
2024/03/05 00:32:29;;;;;;;81.88;27.25;;;;;;;;;;5004281;28;20104;-70
2024/03/05 00:34:54;;;;;;;80.83;26.47;;;;;;;;;;5008826;28;20536;-69
2024/03/05 00:37:19;;;;;;;82.55;26.13;;;;;;;;;;5010989;28;20272;-70
2024/03/05 00:39:44;;;;;;;84.60;27.20;;;;;;;;;;5009513;28;20057;-70
2024/03/05 00:42:10;;;;;;;84.73;27.77;;;;;;;;;;5010813;28;20939;-69
2024/03/05 00:44:35;;;;;;;86.20;28.03;;;;;;;;;;5000473;28;20289;-70
2024/03/05 00:47:00;;;;;;;84.38;26.98;;;;;;;;;;5002455;28;20872;-70
2024/03/05 00:49:25;;;;;;;92.55;27.92;;;;;;;;;;5007679;28;20068;-70
2024/03/05 00:51:50;;;;;;;81.50;27.52;;;;;;;;;;5000188;28;20018;-69
2024/03/05 00:54:16;;;;;;;84.85;26.35;;;;;;;;;;5008325;28;20385;-70
2024/03/05 00:56:41;;;;;;;88.57;27.00;;;;;;;;;;5007676;28;20109;-69
2024/03/05 00:59:06;;;;;;;88.43;27.27;;;;;;;;;;5006829;28;20025;-69
2024/03/05 01:01:32;;;;;;;85.07;27.43;;;;;;;;;;5009668;28;20651;-69
2024/03/05 01:03:58;;;;;;;81.65;26.60;;;;;;;;;;5003744;28;20273;-69
2024/03/05 01:06:23;;;;;;;85.90;28.13;;;;;;;;;;4999841;28;20026;-70
2024/03/05 01:08:48;;;;;;;95.78;27.42;;;;;;;;;;5009045;28;20022;-69
2024/03/05 01:11:13;;;;;;;85.53;26.15;;;;;;;;;;5010541;28;20018;-69
2024/03/05 01:13:40;;;;;;;82.85;26.42;;;;;;;;;;5008131;28;20014;-69
2024/03/05 01:16:06;;;;;;;86.97;27.13;;;;;;;;;;5009010;28;20025;-69
2024/03/05 01:18:31;;;;;;;89.38;27.08;;;;;;;;;;5008309;28;20018;-70
2024/03/05 01:20:56;;;;;;;90.43;26.77;;;;;;;;;;5010054;28;20033;-69
2024/03/05 01:23:21;;;;;;;80.18;26.77;;;;;;;;;;5007130;28;20256;-70
2024/03/05 01:25:47;;;;;;;94.10;27.63;;;;;;;;;;5002767;28;20022;-69
2024/03/05 01:28:14;;;;;;;90.70;28.08;;;;;;;;;;5007285;28;20462;-69
2024/03/05 01:30:40;;;;;;;86.45;25.80;;;;;;;;;;5009938;28;20025;-70
2024/03/05 01:33:19;;;;;;;80.90;25.35;;;;;;;;;;5008630;28;20359;-70
2024/03/05 01:35:44;;;;;;;99.30;27.67;;;;;;;;;;5007937;28;20022;-70
2024/03/05 01:38:09;;;;;;;81.60;26.10;;;;;;;;;;5001894;28;20018;-70
2024/03/05 01:40:35;;;;;;;81.33;26.50;;;;;;;;;;5005625;28;20277;-70
2024/03/05 01:43:00;;;;;;;94.65;25.88;;;;;;;;;;5001262;28;20260;-69
2024/03/05 01:45:25;;;;;;;84.73;26.80;;;;;;;;;;5002264;28;20029;-70
2024/03/05 01:47:51;;;;;;;93.15;25.73;;;;;;;;;;4999690;28;20793;-69
2024/03/05 01:50:16;;;;;;;91.55;27.42;;;;;;;;;;5009671;28;20025;-70
2024/03/05 01:52:43;;;;;;;84.00;27.30;;;;;;;;;;5008182;28;20026;-70
2024/03/05 01:55:10;;;;;;;77.63;25.65;;;;;;;;;;5009704;28;20108;-70
2024/03/05 01:57:36;;;;;;;92.22;26.20;;;;;;;;;;5002445;28;20014;-69
2024/03/05 02:00:01;;;;;;;82.75;25.70;;;;;;;;;;5008523;28;20493;-69
2024/03/05 02:02:26;;;;;;;92.10;26.30;;;;;;;;;;5009805;28;20024;-69
2024/03/05 02:04:52;;;;;;;94.40;25.35;;;;;;;;;;5005958;28;20156;-71
2024/03/05 02:07:17;;;;;;;92.53;28.02;;;;;;;;;;4997435;28;20022;-69
2024/03/05 02:09:44;;;;;;;90.55;28.48;;;;;;;;;;5001127;28;20029;-69
2024/03/05 02:12:09;;;;;;;91.97;26.73;;;;;;;;;;5004501;28;20018;-69
2024/03/05 02:14:34;;;;;;;89.20;26.40;;;;;;;;;;5008822;28;20026;-70
2024/03/05 02:17:00;;;;;;;96.17;25.73;;;;;;;;;;5008785;28;20486;-69
2024/03/05 02:19:26;;;;;;;86.75;25.52;;;;;;;;;;5009485;28;20264;-70
2024/03/05 02:21:58;;;;;;;82.65;24.60;;;;;;;;;;5008888;28;20026;-70
2024/03/05 02:24:23;;;;;;;96.22;25.92;;;;;;;;;;5009007;28;20045;-70
2024/03/05 02:26:48;;;;;;;80.97;26.37;;;;;;;;;;5003282;28;20063;-69
2024/03/05 02:29:13;;;;;;;93.23;24.97;;;;;;;;;;5004027;28;20272;-70
2024/03/05 02:31:38;;;;;;;83.10;25.67;;;;;;;;;;5001214;28;20278;-70
2024/03/05 02:34:04;;;;;;;85.27;24.67;;;;;;;;;;5009447;28;20245;-70
2024/03/05 02:36:30;;;;;;;91.85;26.38;;;;;;;;;;5008667;28;20324;-70
2024/03/05 02:38:55;;;;;;;87.60;26.52;;;;;;;;;;5006823;28;20065;-70
2024/03/05 02:41:20;;;;;;;85.03;26.23;;;;;;;;;;5005534;28;20022;-69
2024/03/05 02:43:46;;;;;;;91.78;24.75;;;;;;;;;;5008806;28;20026;-69
2024/03/05 02:46:13;;;;;;;97.32;28.55;;;;;;;;;;5002374;28;20386;-70
2024/03/05 02:48:38;;;;;;;88.47;27.08;;;;;;;;;;4998535;28;20433;-70
2024/03/05 02:51:04;;;;;;;93.40;27.83;;;;;;;;;;5005671;28;20030;-69
2024/03/05 02:53:29;;;;;;;85.50;26.25;;;;;;;;;;5007214;28;20456;-69
2024/03/05 02:55:55;;;;;;;85.88;25.70;;;;;;;;;;5007992;28;20061;-70
2024/03/05 02:58:20;;;;;;;94.63;28.00;;;;;;;;;;5003637;28;20101;-69
2024/03/05 03:00:45;;;;;;;90.15;26.50;;;;;;;;;;4997208;28;20328;-71
2024/03/05 03:03:11;;;;;;;94.93;26.98;;;;;;;;;;5008299;28;20034;-69
2024/03/05 03:05:38;;;;;;;113.20;32.47;;;;;;;;;;5007130;28;20140;-69
2024/03/05 03:08:04;;;;;;;103.88;29.90;;;;;;;;;;5006841;28;20025;-69
2024/03/05 03:10:30;;;;;;;104.68;29.52;;;;;;;;;;5009062;28;20018;-69
2024/03/05 03:12:55;;;;;;;114.15;30.88;;;;;;;;;;5005398;28;20048;-70
2024/03/05 03:15:21;;;;;;;107.28;29.80;;;;;;;;;;5001186;28;20026;-69
2024/03/05 03:17:47;;;;;;;100.45;28.55;;;;;;;;;;4995510;28;20518;-70
2024/03/05 03:20:18;;;;;;;106.13;31.00;;;;;;;;;;5010818;28;20156;-69
2024/03/05 03:22:45;;;;;;;104.95;29.77;;;;;;;;;;5005846;28;20041;-69
2024/03/05 03:25:11;;;;;;;97.93;28.75;;;;;;;;;;5010045;28;20022;-69
2024/03/05 03:27:36;;;;;;;110.22;30.15;;;;;;;;;;4994491;28;20026;-70
2024/03/05 03:30:03;;;;;;;106.43;30.90;;;;;;;;;;5008269;28;20034;-70
2024/03/05 03:32:29;;;;;;;101.90;30.30;;;;;;;;;;5004583;28;20010;-69
2024/03/05 03:34:54;;;;;;;94.53;28.85;;;;;;;;;;5008394;28;20576;-70
2024/03/05 03:37:19;;;;;;;102.15;28.17;;;;;;;;;;5006498;28;20113;-69
2024/03/05 03:39:46;;;;;;;99.13;28.87;;;;;;;;;;5011667;28;20022;-69
2024/03/05 03:42:11;;;;;;;102.20;29.70;;;;;;;;;;5007916;28;20283;-70
2024/03/05 03:44:37;;;;;;;96.07;29.70;;;;;;;;;;5010524;28;20412;-69
2024/03/05 03:47:03;;;;;;;107.60;29.85;;;;;;;;;;5011567;28;20273;-69
2024/03/05 03:49:28;;;;;;;110.45;30.63;;;;;;;;;;5012016;28;20016;-70
2024/03/05 03:51:53;;;;;;;106.47;30.88;;;;;;;;;;5006464;28;20098;-70
2024/03/05 03:54:19;;;;;;;105.57;29.87;;;;;;;;;;5008108;28;20121;-70
2024/03/05 03:56:44;;;;;;;96.47;26.40;;;;;;;;;;5007468;28;20720;-70
2024/03/05 03:59:10;;;;;;;104.47;29.90;;;;;;;;;;5010887;28;20049;-69
2024/03/05 04:01:36;;;;;;;109.75;30.88;;;;;;;;;;5008148;28;20040;-69
2024/03/05 04:04:02;;;;;;;106.22;31.40;;;;;;;;;;5009856;28;20052;-69
2024/03/05 04:06:29;;;;;;;94.50;30.40;;;;;;;;;;5008551;28;20071;-69
2024/03/05 04:08:54;;;;;;;106.43;30.73;;;;;;;;;;5011031;28;20018;-69
2024/03/05 04:11:21;;;;;;;119.10;33.67;;;;;;;;;;5007123;28;20018;-69
2024/03/05 04:13:47;;;;;;;104.30;31.08;;;;;;;;;;4997725;28;20270;-70
2024/03/05 04:16:12;;;;;;;105.95;29.60;;;;;;;;;;5001966;28;20048;-70
2024/03/05 04:18:37;;;;;;;93.45;30.10;;;;;;;;;;5009615;28;20058;-69
2024/03/05 04:21:02;;;;;;;112.65;30.83;;;;;;;;;;5008574;28;20076;-69
2024/03/05 04:23:27;;;;;;;109.18;30.75;;;;;;;;;;5011595;28;20123;-69
2024/03/05 04:25:58;;;;;;;105.17;30.83;;;;;;;;;;5004024;28;20030;-70
2024/03/05 04:28:23;;;;;;;105.57;29.90;;;;;;;;;;5004076;28;20363;-69
2024/03/05 04:30:49;;;;;;;120.75;33.53;;;;;;;;;;4998372;28;20161;-70
2024/03/05 04:33:16;;;;;;;112.75;31.80;;;;;;;;;;5000874;28;20067;-69
2024/03/05 04:35:42;;;;;;;111.97;33.10;;;;;;;;;;5003298;28;20116;-69
2024/03/05 04:38:08;;;;;;;111.78;30.92;;;;;;;;;;4990926;28;20081;-69
2024/03/05 04:40:33;;;;;;;108.35;31.25;;;;;;;;;;5002212;28;20117;-70
2024/03/05 04:42:59;;;;;;;114.80;32.70;;;;;;;;;;5009585;28;20018;-69
2024/03/05 04:45:25;;;;;;;104.75;29.73;;;;;;;;;;5010771;28;20144;-69
2024/03/05 04:47:50;;;;;;;102.57;32.40;;;;;;;;;;5004081;28;20043;-69
2024/03/05 04:50:17;;;;;;;105.13;31.38;;;;;;;;;;5005739;28;20030;-69
2024/03/05 04:52:42;;;;;;;109.97;30.90;;;;;;;;;;5002446;28;20026;-69
2024/03/05 04:55:08;;;;;;;107.07;34.13;;;;;;;;;;5004592;28;20040;-69
2024/03/05 04:57:34;;;;;;;122.90;34.95;;;;;;;;;;5010525;28;20030;-69
2024/03/05 04:59:59;;;;;;;120.95;32.28;;;;;;;;;;5008645;28;20057;-70
2024/03/05 05:02:24;;;;;;;128.27;36.60;;;;;;;;;;5007610;28;20062;-70
2024/03/05 05:04:49;;;;;;;105.38;32.58;;;;;;;;;;5007884;28;20350;-69
2024/03/05 05:07:16;;;;;;;114.10;34.10;;;;;;;;;;5010205;28;20029;-69
2024/03/05 05:09:41;;;;;;;117.35;33.17;;;;;;;;;;5006229;28;20123;-69
2024/03/05 05:12:06;;;;;;;122.68;33.08;;;;;;;;;;5006409;28;20474;-70
2024/03/05 05:14:32;;;;;;;132.70;32.65;;;;;;;;;;5009902;28;20036;-69
2024/03/05 05:17:00;;;;;;;110.00;33.65;;;;;;;;;;5009707;28;20582;-69
2024/03/05 05:19:25;;;;;;;115.80;32.67;;;;;;;;;;5004517;28;20488;-70
2024/03/05 05:21:51;;;;;;;130.40;34.35;;;;;;;;;;5004451;28;20064;-69
2024/03/05 05:24:16;;;;;;;126.28;32.85;;;;;;;;;;5008257;28;20030;-70
2024/03/05 05:26:42;;;;;;;105.97;33.08;;;;;;;;;;5010089;28;20439;-69
2024/03/05 05:29:07;;;;;;;126.25;34.40;;;;;;;;;;5005575;28;20488;-69
2024/03/05 05:31:33;;;;;;;114.30;30.85;;;;;;;;;;5005972;28;20053;-69
2024/03/05 05:33:58;;;;;;;108.60;31.63;;;;;;;;;;5007777;28;20050;-70
2024/03/05 05:36:23;;;;;;;132.38;34.58;;;;;;;;;;5010191;28;20079;-69
2024/03/05 05:38:49;;;;;;;122.00;34.35;;;;;;;;;;5008310;28;20389;-70
2024/03/05 05:41:14;;;;;;;114.35;33.83;;;;;;;;;;5003004;28;20026;-69
2024/03/05 05:43:40;;;;;;;124.82;33.20;;;;;;;;;;5010222;28;20474;-69
2024/03/05 05:46:12;;;;;;;110.20;31.73;;;;;;;;;;5006798;28;20033;-69
2024/03/05 05:48:37;;;;;;;116.70;34.42;;;;;;;;;;5009521;28;20108;-71
2024/03/05 05:51:10;;;;;;;113.53;34.20;;;;;;;;;;5005244;28;20370;-69
2024/03/05 05:53:35;;;;;;;112.82;31.15;;;;;;;;;;5003417;28;20276;-69
2024/03/05 05:56:00;;;;;;;107.20;29.73;;;;;;;;;;5000872;28;20026;-69
2024/03/05 05:58:25;;;;;;;123.07;35.07;;;;;;;;;;5007061;28;20034;-70
2024/03/05 06:00:51;;;;;;;114.90;33.20;;;;;;;;;;5005626;28;20573;-69
2024/03/05 06:03:16;;;;;;;109.20;30.57;;;;;;;;;;5006814;28;20025;-69
2024/03/05 06:05:42;;;;;;;105.25;31.88;;;;;;;;;;5006426;28;20285;-70
2024/03/05 06:08:10;;;;;;;103.95;31.10;;;;;;;;;;5005873;28;20046;-69
2024/03/05 06:10:36;;;;;;;91.65;27.90;;;;;;;;;;5005809;28;20055;-70
2024/03/05 06:13:01;;;;;;;108.22;31.25;;;;;;;;;;4994733;28;20022;-69
2024/03/05 06:15:29;;;;;;;104.25;31.73;;;;;;;;;;4998951;28;20091;-69
2024/03/05 06:17:55;;;;;;;110.63;31.90;;;;;;;;;;5007068;28;20101;-70
2024/03/05 06:20:21;;;;;;;103.70;31.05;;;;;;;;;;5007032;28;20030;-69
2024/03/05 06:22:46;;;;;;;103.38;31.35;;;;;;;;;;5007227;28;20022;-69
2024/03/05 06:25:13;;;;;;;112.20;30.85;;;;;;;;;;5006599;28;20025;-70
2024/03/05 06:27:39;;;;;;;112.85;30.30;;;;;;;;;;5005684;28;20056;-69
2024/03/05 06:30:07;;;;;;;102.07;29.25;;;;;;;;;;5003201;28;20018;-69
2024/03/05 06:32:36;;;;;;;118.03;33.28;;;;;;;;;;5003904;28;20053;-70
2024/03/05 06:35:01;;;;;;;115.85;31.60;;;;;;;;;;5005727;28;20025;-70
2024/03/05 06:37:27;;;;;;;105.93;31.63;;;;;;;;;;5000595;28;20022;-69
2024/03/05 06:39:52;;;;;;;110.97;32.47;;;;;;;;;;4997631;28;20116;-69
2024/03/05 06:42:19;;;;;;;101.10;31.17;;;;;;;;;;4998613;28;20652;-70
2024/03/05 06:44:50;;;;;;;103.90;30.13;;;;;;;;;;5005999;28;20030;-70
2024/03/05 06:47:16;;;;;;;98.43;30.38;;;;;;;;;;5006143;28;20030;-70
2024/03/05 06:49:42;;;;;;;97.55;30.85;;;;;;;;;;5007051;28;20417;-70
2024/03/05 06:57:36;;;;;;;106.10;30.35;;;;;;;;;;5007876;28;20032;-70
2024/03/05 07:00:15;;;;;;;108.90;30.98;;;;;;;;;;5005761;28;20105;-70
2024/03/05 07:02:40;;;;;;;97.93;31.10;;;;;;;;;;5008786;28;20022;-69
2024/03/05 07:05:06;;;;;;;106.35;32.33;;;;;;;;;;5006394;28;20461;-70
2024/03/05 07:07:33;;;;;;;90.43;27.52;;;;;;;;;;5010667;28;20029;-70
2024/03/05 07:09:58;;;;;;;98.78;31.05;;;;;;;;;;5008353;28;20188;-70
2024/03/05 07:12:24;;;;;;;105.82;30.63;;;;;;;;;;5005813;28;20177;-70
2024/03/05 07:14:49;;;;;;;106.55;32.47;;;;;;;;;;5007997;28;20163;-70
2024/03/05 07:17:15;;;;;;;113.43;30.70;;;;;;;;;;5008888;28;20033;-71
2024/03/05 07:19:40;;;;;;;109.43;31.75;;;;;;;;;;5010810;28;20021;-70
2024/03/05 07:22:06;;;;;;;107.22;32.08;;;;;;;;;;5010083;28;20025;-70
2024/03/05 07:24:32;;;;;;;103.18;29.67;;;;;;;;;;5008737;28;20041;-70
2024/03/05 07:26:57;;;;;;;101.88;30.55;;;;;;;;;;5007729;28;20124;-70
2024/03/05 07:29:22;;;;;;;110.80;34.03;;;;;;;;;;5010032;28;20060;-70
2024/03/05 07:31:49;;;;;;;103.57;32.20;;;;;;;;;;5008439;28;20029;-70
2024/03/05 07:34:14;;;;;;;107.57;30.27;;;;;;;;;;5004288;28;20257;-70
2024/03/05 07:36:40;;;;;;;103.15;31.67;;;;;;;;;;5005951;28;20018;-70
2024/03/05 07:39:11;;;;;;;96.35;29.80;;;;;;;;;;5011327;28;20044;-70
2024/03/05 07:41:36;;;;;;;106.90;31.80;;;;;;;;;;5010207;28;20018;-70
2024/03/05 07:44:02;;;;;;;95.20;29.95;;;;;;;;;;5010870;28;20124;-70
2024/03/05 07:46:27;;;;;;;96.07;31.52;;;;;;;;;;5008546;28;20104;-70
2024/03/05 07:48:53;;;;;;;109.40;30.80;;;;;;;;;;5006940;28;20464;-70
2024/03/05 07:51:18;;;;;;;97.10;30.30;;;;;;;;;;5010074;28;20105;-70
2024/03/05 07:53:44;;;;;;;99.50;30.43;;;;;;;;;;5010616;28;20444;-70
2024/03/05 07:56:09;;;;;;;90.68;29.85;;;;;;;;;;5009741;28;20263;-70
2024/03/05 07:58:35;;;;;;;95.80;30.48;;;;;;;;;;5009270;28;20496;-70
2024/03/05 08:01:00;;;;;;;98.55;32.80;;;;;;;;;;5007128;28;20022;-71
2024/03/05 08:03:26;;;;;;;108.30;31.80;;;;;;;;;;5005683;28;20543;-70
2024/03/05 08:05:51;;;;;;;98.30;31.05;;;;;;;;;;5004113;28;20117;-70
2024/03/05 08:08:16;;;;;;;99.03;29.70;;;;;;;;;;5003974;28;20545;-70
2024/03/05 08:10:42;;;;;;;100.97;29.37;;;;;;;;;;5008701;28;20288;-70
2024/03/05 08:13:07;;;;;;;100.10;31.73;;;;;;;;;;5008553;28;20250;-70
2024/03/05 08:15:32;;;;;;;107.17;31.97;;;;;;;;;;5008466;28;20370;-70
2024/03/05 08:17:58;;;;;;;85.90;32.00;;;;;;;;;;5003307;28;20353;-70
2024/03/05 08:20:26;;;;;;;106.05;30.25;;;;;;;;;;5002104;28;20033;-70
2024/03/05 08:22:52;;;;;;;100.45;30.75;;;;;;;;;;4996711;28;20126;-70
2024/03/05 08:25:18;;;;;;;108.57;32.53;;;;;;;;;;5002652;28;20113;-70
2024/03/05 08:27:45;;;;;;;98.82;31.73;;;;;;;;;;5010448;28;20443;-70
2024/03/05 08:30:31;;;;;;;121.70;33.20;;;;;;;;;;5011104;28;20026;-70
2024/03/05 08:32:57;;;;;;;103.53;34.65;;;;;;;;;;5007699;28;20054;-71
2024/03/05 08:35:22;;;;;;;99.90;33.28;;;;;;;;;;5010640;28;20512;-70
2024/03/05 08:37:48;;;;;;;110.03;32.00;;;;;;;;;;5003627;28;20025;-70
2024/03/05 08:40:15;;;;;;;99.78;31.55;;;;;;;;;;5005168;28;20084;-70
2024/03/05 08:42:44;;;;;;;91.85;30.05;;;;;;;;;;5008757;28;20022;-70
2024/03/05 08:45:10;;;;;;;114.05;33.03;;;;;;;;;;5010886;28;20025;-70
2024/03/05 08:47:36;;;;;;;116.20;32.00;;;;;;;;;;5010889;28;20028;-70
2024/03/05 08:50:01;;;;;;;100.43;30.90;;;;;;;;;;5009437;28;20389;-70
2024/03/05 08:52:26;;;;;;;91.43;29.67;;;;;;;;;;5005860;28;20137;-70
2024/03/05 08:54:51;;;;;;;107.23;31.93;;;;;;;;;;5007324;28;20124;-70
2024/03/05 08:57:16;;;;;;;100.73;31.63;;;;;;;;;;5009430;28;20257;-70
2024/03/05 08:59:41;;;;;;;113.97;33.30;;;;;;;;;;5008268;28;20278;-70
2024/03/05 09:02:07;;;;;;;110.53;33.23;;;;;;;;;;5010672;28;20732;-70
2024/03/05 09:04:32;;;;;;;99.85;33.70;;;;;;;;;;5010535;28;20268;-70
2024/03/05 09:06:58;;;;;;;97.03;30.85;;;;;;;;;;5025510;28;20022;-70
2024/03/05 09:09:23;;;;;;;99.95;31.45;;;;;;;;;;5010300;28;20511;-70
2024/03/05 09:11:48;;;;;;;101.23;31.43;;;;;;;;;;5010618;28;20014;-70
2024/03/05 09:14:13;;;;;;;92.15;30.55;;;;;;;;;;5008608;28;20782;-71
2024/03/05 09:16:39;;;;;;;109.72;32.28;;;;;;;;;;5005156;28;20025;-70
2024/03/05 09:19:04;;;;;;;107.18;33.47;;;;;;;;;;5010110;28;20255;-70
2024/03/05 09:21:32;;;;;;;121.25;33.75;;;;;;;;;;5010288;28;20299;-70
2024/03/05 09:23:57;;;;;;;108.40;33.70;;;;;;;;;;5010598;28;20022;-70
2024/03/05 09:26:22;;;;;;;109.50;34.45;;;;;;;;;;5005881;28;20145;-69
2024/03/05 09:28:47;;;;;;;119.20;31.90;;;;;;;;;;5008475;28;20056;-70
2024/03/05 09:31:12;;;;;;;111.03;31.73;;;;;;;;;;5003068;28;20272;-70
2024/03/05 09:33:38;;;;;;;107.87;31.57;;;;;;;;;;5004029;28;20083;-70
2024/03/05 09:36:06;;;;;;;108.78;31.67;;;;;;;;;;5004098;28;20264;-70
2024/03/05 09:38:31;;;;;;;88.18;25.75;;;;;;;;;;5003036;28;20520;-70
2024/03/05 09:40:56;;;;;;;114.63;35.10;;;;;;;;;;5006784;28;20113;-70
2024/03/05 09:43:24;;;;;;;121.00;35.25;;;;;;;;;;5007755;28;20018;-70
2024/03/05 09:45:50;;;;;;;113.45;32.47;;;;;;;;;;5002995;28;20034;-70
2024/03/05 09:48:17;;;;;;;101.25;30.75;;;;;;;;;;5008763;28;20567;-70
2024/03/05 09:50:43;;;;;;;96.95;31.33;;;;;;;;;;5004387;28;20023;-70
2024/03/05 09:53:08;;;;;;;102.25;30.92;;;;;;;;;;5008533;28;20044;-71
2024/03/05 09:55:34;;;;;;;96.93;29.48;;;;;;;;;;5003581;28;20440;-68
2024/03/05 09:58:02;;;;;;;115.15;32.95;;;;;;;;;;5008182;28;20029;-71
2024/03/05 10:00:30;;;;;;;105.30;32.72;;;;;;;;;;5009475;28;20021;-71
2024/03/05 10:02:55;;;;;;;121.63;34.90;;;;;;;;;;5009661;28;20026;-71
2024/03/05 10:05:25;;;;;;;101.17;30.40;;;;;;;;;;5009598;28;20164;-71
2024/03/05 10:07:50;;;;;;;109.32;30.20;;;;;;;;;;5009592;28;20256;-71
2024/03/05 10:10:18;;;;;;;102.55;32.20;;;;;;;;;;5006106;28;20025;-71
2024/03/05 10:12:44;;;;;;;112.10;32.08;;;;;;;;;;5005082;28;20037;-71
2024/03/05 10:15:17;;;;;;;101.20;30.13;;;;;;;;;;5007641;28;20026;-71
2024/03/05 10:17:49;;;;;;;117.95;32.80;;;;;;;;;;5002768;28;20029;-71
2024/03/05 10:20:25;;;;;;;108.78;34.17;;;;;;;;;;5009457;28;20029;-68
2024/03/05 10:22:50;;;;;;;124.40;35.40;;;;;;;;;;5009729;28;20018;-68
2024/03/05 10:25:16;;;;;;;121.25;34.92;;;;;;;;;;5011070;28;20026;-70
2024/03/05 10:27:44;;;;;;;125.03;35.88;;;;;;;;;;5006702;28;20021;-70
2024/03/05 10:30:19;;;;;;;97.00;29.67;;;;;;;;;;5002951;28;20038;-71
2024/03/05 10:32:50;;;;;;;124.70;35.13;;;;;;;;;;5008542;28;20019;-71
2024/03/05 10:35:15;;;;;;;114.22;31.38;;;;;;;;;;5009598;28;20032;-71
2024/03/05 10:37:40;;;;;;;120.13;34.60;;;;;;;;;;5005961;28;20401;-71
2024/03/05 10:40:08;;;;;;;94.87;30.90;;;;;;;;;;5013210;28;20326;-71
2024/03/05 10:42:33;;;;;;;111.97;32.33;;;;;;;;;;5009795;28;20282;-71
2024/03/05 10:44:59;;;;;;;131.93;36.65;;;;;;;;;;5012583;28;20025;-71
2024/03/05 10:47:26;;;;;;;129.85;36.42;;;;;;;;;;5011314;28;20014;-71
2024/03/05 10:49:51;;;;;;;116.07;31.90;;;;;;;;;;5006301;28;20037;-71
2024/03/05 10:52:20;;;;;;;124.10;36.15;;;;;;;;;;5006623;28;20460;-71
2024/03/05 10:54:47;;;;;;;134.68;37.28;;;;;;;;;;5011717;28;20025;-71
2024/03/05 10:57:12;;;;;;;117.88;31.35;;;;;;;;;;5007825;28;20022;-71
2024/03/05 10:59:41;;;;;;;121.95;34.38;;;;;;;;;;5012860;28;20428;-71
2024/03/05 11:02:09;;;;;;;112.63;32.22;;;;;;;;;;5013024;28;20021;-71
2024/03/05 11:04:34;;;;;;;119.93;33.67;;;;;;;;;;5002036;28;20081;-71
2024/03/05 11:07:01;;;;;;;122.57;36.45;;;;;;;;;;5009384;28;20021;-71
2024/03/05 11:09:27;;;;;;;116.97;36.90;;;;;;;;;;5010812;28;20018;-71
2024/03/05 11:11:57;;;;;;;121.72;36.28;;;;;;;;;;5012954;28;20017;-71
2024/03/05 11:14:24;;;;;;;118.50;34.13;;;;;;;;;;5012560;28;20405;-71
2024/03/05 11:16:59;;;;;;;100.65;32.60;;;;;;;;;;5012543;28;20036;-71
2024/03/05 11:19:24;;;;;;;106.97;34.33;;;;;;;;;;5012548;28;20036;-71
2024/03/05 11:21:49;;;;;;;120.13;37.03;;;;;;;;;;5012905;28;20022;-71
2024/03/05 11:24:14;;;;;;;108.90;32.93;;;;;;;;;;5007335;28;20032;-71
2024/03/05 11:26:39;;;;;;;118.77;33.63;;;;;;;;;;5005927;28;20681;-71
2024/03/05 11:29:05;;;;;;;125.17;34.73;;;;;;;;;;5012874;28;20334;-71
2024/03/05 11:31:31;;;;;;;117.15;35.50;;;;;;;;;;5009968;28;20256;-71
2024/03/05 11:34:02;;;;;;;122.65;35.50;;;;;;;;;;5012515;28;20491;-71
2024/03/05 11:36:29;;;;;;;126.38;35.10;;;;;;;;;;5012019;28;20105;-70
2024/03/05 11:39:08;;;;;;;106.55;33.78;;;;;;;;;;4992689;28;20018;-71
2024/03/05 11:41:34;;;;;;;85.10;29.15;;;;;;;;;;4992614;28;20033;-71
2024/03/05 11:43:59;;;;;;;85.25;30.70;;;;;;;;;;5000882;28;20061;-70
2024/03/05 11:47:00;;;;;;;91.53;29.60;;;;;;;;;;5004954;28;20046;-71
2024/03/05 11:49:25;;;;;;;109.88;31.80;;;;;;;;;;4950711;29;20143;-71
2024/03/05 11:51:50;;;;;;;104.25;31.20;;;;;;;;;;4998345;28;20476;-71
2024/03/05 11:54:17;;;;;;;78.87;27.33;;;;;;;;;;5011481;28;20026;-71
2024/03/05 11:56:43;;;;;;;76.40;25.88;;;;;;;;;;5009946;28;20265;-70
2024/03/05 11:59:09;;;;;;;68.45;25.65;;;;;;;;;;5011548;28;20018;-71
2024/03/05 12:01:34;;;;;;;73.55;25.95;;;;;;;;;;5012121;28;20469;-71
2024/03/05 12:04:03;;;;;;;61.83;21.73;;;;;;;;;;5011775;28;20529;-71
2024/03/05 12:06:28;;;;;;;67.35;23.30;;;;;;;;;;5009868;28;20054;-71
2024/03/05 12:08:56;;;;;;;57.50;24.05;;;;;;;;;;4999537;28;20073;-70
2024/03/05 12:11:21;;;;;;;68.22;21.77;;;;;;;;;;5004060;28;20109;-71
2024/03/05 12:13:47;;;;;;;63.00;22.95;;;;;;;;;;5011349;28;20105;-71
2024/03/05 12:16:14;;;;;;;58.22;22.27;;;;;;;;;;5011360;28;20025;-71
2024/03/05 12:18:39;;;;;;;63.75;21.98;;;;;;;;;;5011406;28;20018;-70
2024/03/05 12:21:06;;;;;;;61.80;22.23;;;;;;;;;;5011731;28;20056;-71
2024/03/05 12:23:32;;;;;;;57.33;23.02;;;;;;;;;;5011315;28;20018;-70
2024/03/05 12:25:58;;;;;;;55.30;20.88;;;;;;;;;;5006311;28;20050;-70
2024/03/05 12:28:23;;;;;;;61.85;23.35;;;;;;;;;;5009809;28;20021;-70
2024/03/05 12:30:50;;;;;;;60.88;22.52;;;;;;;;;;5003662;28;20374;-70
2024/03/05 12:33:19;;;;;;;59.25;23.35;;;;;;;;;;5004548;28;20058;-70
2024/03/05 12:35:48;;;;;;;48.90;19.42;;;;;;;;;;5010829;28;20076;-70
2024/03/05 12:38:13;;;;;;;55.75;20.83;;;;;;;;;;5011142;28;20018;-70
2024/03/05 12:40:41;;;;;;;58.95;20.65;;;;;;;;;;5007588;28;20449;-70
2024/03/05 12:43:07;;;;;;;48.45;20.30;;;;;;;;;;5011328;28;20412;-70
2024/03/05 12:45:33;;;;;;;48.70;21.35;;;;;;;;;;5009622;28;20021;-70
2024/03/05 12:47:59;;;;;;;52.13;20.17;;;;;;;;;;4997322;28;20436;-70
2024/03/05 12:50:24;;;;;;;46.90;19.13;;;;;;;;;;5004116;28;20036;-70
2024/03/05 12:53:00;;;;;;;46.65;20.58;;;;;;;;;;5003749;28;20556;-70
2024/03/05 12:55:26;;;;;;;47.15;19.58;;;;;;;;;;5007603;28;20512;-70
2024/03/05 12:57:52;;;;;;;41.10;17.73;;;;;;;;;;5028147;28;20076;-70
2024/03/05 13:00:17;;;;;;;44.90;17.75;;;;;;;;;;5009707;28;20026;-70
2024/03/05 13:02:43;;;;;;;42.13;18.23;;;;;;;;;;5009265;28;20487;-70
2024/03/05 13:05:08;;;;;;;39.15;15.25;;;;;;;;;;5010411;28;20080;-70
2024/03/05 13:07:34;;;;;;;38.75;16.92;;;;;;;;;;5004116;28;20461;-70
2024/03/05 13:09:59;;;;;;;35.20;14.55;;;;;;;;;;5003582;28;20109;-71
2024/03/05 13:12:26;;;;;;;33.67;13.93;;;;;;;;;;5010597;28;20611;-70
2024/03/05 13:14:51;;;;;;;27.30;13.05;;;;;;;;;;5003769;28;20252;-70
2024/03/05 13:17:16;;;;;;;35.92;14.07;;;;;;;;;;5006629;28;20088;-70
2024/03/05 13:19:42;;;;;;;30.73;13.67;;;;;;;;;;5010005;28;20014;-70
2024/03/05 13:22:08;;;;;;;34.55;12.27;;;;;;;;;;5010442;28;20257;-70
2024/03/05 13:24:34;;;;;;;36.88;14.35;;;;;;;;;;5010291;28;20034;-71
2024/03/05 13:26:59;;;;;;;39.55;16.25;;;;;;;;;;5004435;28;20054;-70
2024/03/05 13:29:24;;;;;;;30.85;14.60;;;;;;;;;;4997897;28;20065;-71
2024/03/05 13:31:50;;;;;;;33.23;15.13;;;;;;;;;;5008763;28;20020;-70
2024/03/05 13:34:16;;;;;;;38.47;14.90;;;;;;;;;;5010399;28;20334;-70
2024/03/05 13:36:41;;;;;;;34.22;15.07;;;;;;;;;;5008811;28;20257;-70
2024/03/05 13:39:11;;;;;;;37.95;16.13;;;;;;;;;;5009639;28;20382;-70
2024/03/05 13:41:40;;;;;;;33.07;16.07;;;;;;;;;;5004875;28;20477;-70
2024/03/05 13:44:06;;;;;;;38.03;16.35;;;;;;;;;;5009897;28;20468;-70
2024/03/05 13:46:31;;;;;;;38.38;15.25;;;;;;;;;;5005792;28;20030;-70
2024/03/05 13:49:00;;;;;;;46.03;18.02;;;;;;;;;;4997283;28;20018;-70
2024/03/05 13:51:29;;;;;;;39.83;16.80;;;;;;;;;;5004765;28;20521;-70
2024/03/05 13:53:54;;;;;;;35.20;16.48;;;;;;;;;;5001848;28;20046;-70
2024/03/05 13:56:19;;;;;;;44.28;17.85;;;;;;;;;;5006189;28;20567;-70
2024/03/05 13:58:45;;;;;;;40.15;18.00;;;;;;;;;;5000700;28;20501;-70
2024/03/05 14:01:11;;;;;;;43.38;16.73;;;;;;;;;;5001446;28;20025;-70
2024/03/05 14:03:37;;;;;;;40.45;17.38;;;;;;;;;;5009050;28;20092;-70
2024/03/05 14:06:04;;;;;;;46.70;16.48;;;;;;;;;;5003239;28;20500;-70
2024/03/05 14:08:30;;;;;;;35.22;15.07;;;;;;;;;;5000746;28;20508;-70
2024/03/05 14:10:55;;;;;;;30.90;12.88;;;;;;;;;;5009070;28;20372;-70